createdAt,value
2022-10-22T00:00:41.557Z,11.60
2022-10-22T00:03:08.741Z,11.25
2022-10-22T00:05:35.806Z,11.68
2022-10-22T00:08:03.910Z,12.07
2022-10-22T00:10:31.127Z,11.43
2022-10-22T00:12:58.152Z,11.82
2022-10-22T00:15:25.303Z,11.75
2022-10-22T00:17:52.453Z,11.18
2022-10-22T00:20:19.777Z,11.00
2022-10-22T00:22:46.903Z,10.45
2022-10-22T00:25:14.280Z,11.57
2022-10-22T00:27:41.635Z,11.20
2022-10-22T00:30:09.615Z,11.10
2022-10-22T00:32:36.834Z,11.02
2022-10-22T00:35:04.525Z,11.60
2022-10-22T00:37:31.812Z,11.30
2022-10-22T00:39:59.139Z,10.65
2022-10-22T00:42:27.860Z,10.38
2022-10-22T00:45:09.930Z,10.32
2022-10-22T00:47:59.554Z,9.90
2022-10-22T00:50:40.441Z,10.23
2022-10-22T00:53:15.156Z,9.70
2022-10-22T00:55:45.972Z,9.25
2022-10-22T00:58:13.913Z,9.48
2022-10-22T01:00:41.206Z,9.20
2022-10-22T01:03:09.128Z,8.95
2022-10-22T01:06:06.014Z,8.68
2022-10-22T01:08:38.806Z,9.45
2022-10-22T01:11:34.043Z,9.70
2022-10-22T01:14:25.174Z,9.70
2022-10-22T01:16:59.741Z,9.52
2022-10-22T01:19:41.636Z,9.75
2022-10-22T01:22:21.944Z,9.35
2022-10-22T01:25:17.062Z,9.60
2022-10-22T01:27:53.691Z,10.35
2022-10-22T01:30:21.047Z,9.18
2022-10-22T01:32:55.641Z,10.13
2022-10-22T01:35:28.284Z,9.73
2022-10-22T01:38:00.390Z,9.35
2022-10-22T01:40:29.198Z,9.05
2022-10-22T01:43:08.652Z,9.30
2022-10-22T01:45:43.734Z,8.48
2022-10-22T01:48:47.634Z,9.30
2022-10-22T01:54:07.094Z,7.68
2022-10-22T01:56:54.145Z,7.82
2022-10-22T01:59:24.020Z,7.53
2022-10-22T02:02:08.270Z,8.25
2022-10-22T02:04:43.703Z,7.63
2022-10-22T02:07:14.330Z,8.13
2022-10-22T02:09:43.565Z,8.07
2022-10-22T02:12:11.675Z,7.68
2022-10-22T02:14:42.683Z,7.32
2022-10-22T02:17:16.030Z,7.88
2022-10-22T02:19:46.952Z,7.50
2022-10-22T02:22:14.456Z,7.88
2022-10-22T02:24:41.870Z,8.35
2022-10-22T02:27:54.746Z,7.82
2022-10-22T02:30:23.261Z,8.15
2022-10-22T02:33:08.821Z,7.32
2022-10-22T02:35:37.726Z,8.38
2022-10-22T02:38:05.501Z,8.50
2022-10-22T02:40:33.186Z,8.60
2022-10-22T02:43:00.582Z,8.05
2022-10-22T02:45:27.839Z,8.00
2022-10-22T02:47:55.019Z,7.43
2022-10-22T02:50:22.284Z,7.82
2022-10-22T02:52:49.373Z,7.63
2022-10-22T02:55:16.674Z,7.35
2022-10-22T02:57:43.874Z,7.43
2022-10-22T03:00:12.426Z,7.25
2022-10-22T03:02:39.546Z,7.88
2022-10-22T03:05:07.124Z,7.75
2022-10-22T03:07:34.737Z,7.75
2022-10-22T03:10:02.153Z,7.82
2022-10-22T03:12:29.231Z,7.97
2022-10-22T03:14:56.424Z,7.88
2022-10-22T03:17:23.656Z,7.28
2022-10-22T03:19:50.847Z,7.55
2022-10-22T03:22:27.675Z,8.30
2022-10-22T03:24:59.093Z,7.60
2022-10-22T03:27:28.553Z,8.30
2022-10-22T03:29:57.342Z,8.43
2022-10-22T03:32:24.399Z,7.90
2022-10-22T03:34:51.630Z,7.00
2022-10-22T03:37:19.085Z,7.55
2022-10-22T03:39:46.790Z,6.97
2022-10-22T03:42:14.041Z,7.85
2022-10-22T03:44:41.634Z,7.72
2022-10-22T03:47:08.773Z,8.10
2022-10-22T03:49:36.194Z,7.43
2022-10-22T03:52:09.321Z,7.53
2022-10-22T03:57:05.673Z,7.90
2022-10-22T03:59:41.777Z,7.63
2022-10-22T04:02:10.397Z,8.05
2022-10-22T04:04:38.348Z,7.47
2022-10-22T04:07:06.701Z,7.82
2022-10-22T04:09:34.816Z,8.10
2022-10-22T04:12:02.485Z,8.05
2022-10-22T04:14:29.633Z,7.88
2022-10-22T04:16:56.695Z,8.27
2022-10-22T04:19:24.059Z,8.02
2022-10-22T04:21:51.085Z,7.63
2022-10-22T04:24:18.263Z,8.07
2022-10-22T04:26:45.299Z,7.82
2022-10-22T04:29:15.963Z,7.88
2022-10-22T04:31:43.682Z,7.68
2022-10-22T04:34:10.807Z,8.63
2022-10-22T04:36:37.973Z,7.32
2022-10-22T04:39:06.466Z,8.95
2022-10-22T04:41:36.270Z,8.50
2022-10-22T04:44:04.380Z,7.78
2022-10-22T04:46:33.926Z,9.23
2022-10-22T04:49:03.995Z,7.93
2022-10-22T04:51:31.817Z,8.35
2022-10-22T04:53:59.055Z,8.88
2022-10-22T04:56:29.199Z,9.15
2022-10-22T04:59:01.400Z,9.10
2022-10-22T05:01:31.202Z,7.88
2022-10-22T05:04:02.317Z,9.95
2022-10-22T05:06:31.071Z,9.63
2022-10-22T05:09:00.296Z,8.88
2022-10-22T05:11:30.186Z,8.45
2022-10-22T05:13:59.625Z,9.40
2022-10-22T05:16:29.126Z,9.30
2022-10-22T05:18:56.501Z,8.70
2022-10-22T05:21:23.728Z,8.95
2022-10-22T05:23:51.644Z,9.60
2022-10-22T05:26:21.072Z,10.07
2022-10-22T05:28:49.710Z,10.15
2022-10-22T05:31:18.298Z,10.25
2022-10-22T05:33:46.902Z,9.93
2022-10-22T05:36:17.057Z,9.82
2022-10-22T05:38:44.294Z,9.20
2022-10-22T05:41:17.281Z,8.85
2022-10-22T05:46:15.710Z,12.23
2022-10-22T05:48:50.463Z,13.90
2022-10-22T05:51:18.081Z,13.70
2022-10-22T05:53:46.177Z,13.13
2022-10-22T05:56:16.055Z,11.05
2022-10-22T05:58:45.048Z,10.90
2022-10-22T06:01:24.120Z,9.43
2022-10-22T06:03:54.814Z,8.65
2022-10-22T06:06:31.450Z,8.80
2022-10-22T06:09:03.647Z,12.25
2022-10-22T06:11:34.269Z,13.38
2022-10-22T06:14:03.078Z,10.30
2022-10-22T06:16:31.625Z,8.63
2022-10-22T06:19:02.621Z,7.97
2022-10-22T06:21:30.942Z,8.18
2022-10-22T06:23:59.946Z,7.07
2022-10-22T06:26:27.144Z,8.00
2022-10-22T06:28:56.385Z,8.70
2022-10-22T06:31:24.652Z,8.23
2022-10-22T06:33:52.244Z,8.18
2022-10-22T06:36:21.893Z,7.85
2022-10-22T06:38:52.751Z,8.60
2022-10-22T06:41:22.180Z,8.75
2022-10-22T06:43:54.074Z,8.13
2022-10-22T06:46:22.644Z,9.48
2022-10-22T06:48:56.355Z,9.32
2022-10-22T06:51:23.809Z,9.80
2022-10-22T06:53:50.995Z,9.07
2022-10-22T06:56:20.856Z,8.70
2022-10-22T06:58:49.397Z,8.48
2022-10-22T07:01:18.262Z,9.20
2022-10-22T07:03:45.748Z,7.10
2022-10-22T07:06:14.894Z,8.07
2022-10-22T07:08:43.063Z,7.72
2022-10-22T07:11:11.889Z,9.13
2022-10-22T07:13:38.962Z,8.80
2022-10-22T07:16:07.703Z,9.00
2022-10-22T07:18:36.043Z,10.20
2022-10-22T07:21:03.252Z,9.63
2022-10-22T07:23:31.002Z,9.63
2022-10-22T07:25:59.404Z,9.48
2022-10-22T07:28:26.481Z,9.00
2022-10-22T07:30:53.848Z,8.02
2022-10-22T07:33:21.214Z,9.18
2022-10-22T07:35:48.586Z,8.60
2022-10-22T07:38:15.645Z,7.68
2022-10-22T07:40:42.849Z,7.22
2022-10-22T07:43:09.922Z,7.47
2022-10-22T07:45:37.068Z,7.70
2022-10-22T07:48:04.316Z,7.63
2022-10-22T07:50:31.501Z,7.05
2022-10-22T07:52:58.846Z,7.47
2022-10-22T07:55:26.440Z,7.43
2022-10-22T07:57:53.612Z,7.45
2022-10-22T08:00:23.204Z,7.65
2022-10-22T08:02:52.721Z,7.82
2022-10-22T08:05:19.993Z,7.22
2022-10-22T08:07:47.038Z,7.10
2022-10-22T08:10:14.474Z,8.00
2022-10-22T08:12:42.183Z,8.38
2022-10-22T08:15:10.334Z,9.00
2022-10-22T08:17:37.434Z,8.38
2022-10-22T08:20:05.593Z,8.98
2022-10-22T08:22:32.763Z,8.07
2022-10-22T08:25:00.673Z,7.30
2022-10-22T08:27:27.860Z,8.27
2022-10-22T08:29:55.057Z,7.85
2022-10-22T08:32:22.416Z,7.65
2022-10-22T08:34:49.715Z,7.05
2022-10-22T08:37:18.012Z,8.07
2022-10-22T08:39:45.863Z,7.32
2022-10-22T08:42:43.699Z,6.88
2022-10-22T08:45:20.033Z,6.57
2022-10-22T08:47:59.652Z,6.80
2022-10-22T08:50:41.097Z,6.38
2022-10-22T08:53:41.598Z,6.57
2022-10-22T08:56:09.519Z,6.43
2022-10-22T08:58:46.302Z,7.55
2022-10-22T09:01:32.670Z,7.38
2022-10-22T09:04:14.030Z,6.07
2022-10-22T09:06:44.573Z,6.28
2022-10-22T09:09:18.264Z,6.43
2022-10-22T09:11:48.895Z,5.97
2022-10-22T09:14:18.959Z,5.53
2022-10-22T09:17:11.043Z,5.82
2022-10-22T09:19:57.247Z,5.45
2022-10-22T09:22:42.505Z,5.32
2022-10-22T09:25:21.882Z,5.25
2022-10-22T09:27:50.531Z,5.65
2022-10-22T09:30:21.572Z,4.85
2022-10-22T09:32:55.329Z,5.03
2022-10-22T09:35:25.040Z,4.70
2022-10-22T09:37:57.214Z,4.97
2022-10-22T09:40:24.518Z,4.85
2022-10-22T09:42:51.751Z,5.10
2022-10-22T09:45:25.907Z,4.97
2022-10-22T09:48:12.372Z,5.10
2022-10-22T09:50:46.059Z,4.88
2022-10-22T09:53:37.395Z,5.22
2022-10-22T09:56:15.727Z,4.82
2022-10-22T09:58:44.998Z,4.85
2022-10-22T10:01:36.099Z,4.55
2022-10-22T10:04:09.586Z,4.13
2022-10-22T10:06:42.175Z,4.78
2022-10-22T10:09:17.255Z,4.93
2022-10-22T10:12:09.168Z,4.50
2022-10-22T10:15:03.289Z,4.47
2022-10-22T10:17:36.115Z,4.28
2022-10-22T10:20:16.577Z,5.20
2022-10-22T10:22:58.222Z,5.10
2022-10-22T10:25:42.502Z,4.50
2022-10-22T10:28:18.326Z,4.95
2022-10-22T10:31:07.310Z,4.80
2022-10-22T10:33:41.655Z,4.78
2022-10-22T10:36:34.291Z,4.70
2022-10-22T10:39:20.764Z,4.77
2022-10-22T10:42:09.531Z,4.95
2022-10-22T10:45:01.867Z,4.32
2022-10-22T10:47:42.303Z,4.90
2022-10-22T10:50:43.240Z,4.43
2022-10-22T10:53:29.699Z,5.70
2022-10-22T10:56:07.441Z,6.22
2022-10-22T10:58:42.521Z,4.25
2022-10-22T11:01:14.509Z,4.07
2022-10-22T11:03:58.396Z,4.60
2022-10-22T11:06:29.539Z,4.53
2022-10-22T11:09:08.407Z,4.07
2022-10-22T11:11:52.495Z,4.57
2022-10-22T11:14:46.144Z,4.20
2022-10-22T11:17:19.343Z,4.05
2022-10-22T11:20:03.437Z,4.45
2022-10-22T11:23:16.810Z,3.55
2022-10-22T11:25:49.800Z,3.65
2022-10-22T11:28:41.927Z,4.32
2022-10-22T11:31:17.724Z,4.15
2022-10-22T11:34:15.314Z,4.70
2022-10-22T11:36:50.056Z,4.72
2022-10-22T11:39:41.336Z,3.83
2022-10-22T11:42:36.785Z,4.25
2022-10-22T11:45:30.162Z,3.97
2022-10-22T11:48:10.635Z,4.00
2022-10-22T11:50:51.394Z,3.90
2022-10-22T11:53:39.399Z,4.15
2022-10-22T11:56:11.327Z,3.90
2022-10-22T11:58:50.850Z,4.00
2022-10-22T12:01:42.244Z,3.92
2022-10-22T12:04:18.563Z,4.18
2022-10-22T12:07:06.953Z,4.93
2022-10-22T12:09:41.208Z,4.22
2022-10-22T12:12:16.147Z,4.78
2022-10-22T12:14:59.563Z,4.80
2022-10-22T12:17:32.625Z,7.10
2022-10-22T12:20:08.334Z,6.50
2022-10-22T12:22:39.918Z,4.80
2022-10-22T12:25:20.368Z,5.20
2022-10-22T12:27:53.707Z,4.32
2022-10-22T12:30:26.397Z,4.72
2022-10-22T12:33:02.438Z,4.70
2022-10-22T12:35:36.079Z,5.68
2022-10-22T12:38:14.175Z,4.75
2022-10-22T12:40:47.497Z,5.03
2022-10-22T12:43:32.626Z,4.55
2022-10-22T12:46:03.132Z,4.72
2022-10-22T12:48:36.983Z,5.00
2022-10-22T12:51:08.664Z,5.32
2022-10-22T12:54:08.253Z,5.17
2022-10-22T12:56:38.125Z,4.65
2022-10-22T12:59:10.510Z,4.72
2022-10-22T13:01:42.928Z,4.30
2022-10-22T13:04:14.101Z,4.60
2022-10-22T13:07:05.736Z,4.68
2022-10-22T13:09:44.019Z,6.70
2022-10-22T13:12:17.270Z,6.90
2022-10-22T13:14:47.821Z,7.65
2022-10-22T13:17:21.471Z,7.72
2022-10-22T13:20:05.578Z,7.88
2022-10-22T13:22:53.623Z,8.15
2022-10-22T13:25:26.165Z,14.32
2022-10-22T13:28:20.825Z,21.20
2022-10-22T13:31:00.359Z,16.98
2022-10-22T13:33:30.912Z,16.25
2022-10-22T13:35:58.640Z,13.63
2022-10-22T13:38:28.034Z,11.05
2022-10-22T13:40:56.512Z,11.77
2022-10-22T13:43:25.315Z,10.80
2022-10-22T13:45:56.057Z,10.35
2022-10-22T13:48:25.789Z,10.82
2022-10-22T13:50:54.199Z,11.68
2022-10-22T13:53:24.250Z,11.00
2022-10-22T13:58:26.161Z,11.90
2022-10-22T14:00:57.286Z,14.20
2022-10-22T14:03:32.533Z,14.55
2022-10-22T14:06:00.266Z,10.60
2022-10-22T14:08:28.316Z,12.70
2022-10-22T14:10:55.477Z,15.73
2022-10-22T14:13:22.794Z,14.05
2022-10-22T14:15:51.781Z,11.13
2022-10-22T14:18:27.828Z,12.43
2022-10-22T14:20:58.491Z,12.30
2022-10-22T14:23:28.990Z,11.98
2022-10-22T14:25:57.116Z,15.05
2022-10-22T14:28:24.703Z,11.80
2022-10-22T14:30:52.895Z,13.98
2022-10-22T14:33:32.983Z,11.98
2022-10-22T14:36:01.007Z,12.05
2022-10-22T14:38:28.637Z,12.07
2022-10-22T14:40:56.925Z,12.07
2022-10-22T14:43:27.556Z,11.15
2022-10-22T14:45:55.463Z,11.43
2022-10-22T14:48:22.855Z,10.45
2022-10-22T14:50:51.115Z,11.07
2022-10-22T14:53:18.656Z,10.20
2022-10-22T14:55:47.863Z,9.57
2022-10-22T14:58:15.709Z,10.40
2022-10-22T15:00:46.274Z,9.88
2022-10-22T15:03:13.764Z,9.60
2022-10-22T15:05:45.604Z,9.30
2022-10-22T15:08:16.093Z,10.13
2022-10-22T15:10:44.109Z,9.82
2022-10-22T15:15:44.734Z,9.52
2022-10-22T15:18:12.737Z,10.27
2022-10-22T15:20:40.652Z,9.57
2022-10-22T15:23:08.207Z,9.20
2022-10-22T15:25:38.870Z,9.57
2022-10-22T15:28:09.817Z,9.48
2022-10-22T15:30:37.707Z,10.52
2022-10-22T15:33:07.522Z,9.82
2022-10-22T15:35:36.431Z,10.35
2022-10-22T15:38:06.936Z,10.05
2022-10-22T15:40:35.158Z,10.02
2022-10-22T15:43:04.814Z,10.30
2022-10-22T15:45:37.077Z,10.88
2022-10-22T15:48:07.270Z,10.10
2022-10-22T15:50:38.952Z,11.82
2022-10-22T15:53:06.700Z,11.85
2022-10-22T15:55:34.010Z,10.48
2022-10-22T15:58:03.565Z,11.50
2022-10-22T16:00:34.174Z,12.50
2022-10-22T16:03:06.775Z,12.88
2022-10-22T16:05:34.202Z,10.77
2022-10-22T16:08:07.598Z,11.80
2022-10-22T16:10:35.177Z,12.45
2022-10-22T16:13:02.729Z,11.20
2022-10-22T16:15:31.695Z,10.95
2022-10-22T16:17:59.682Z,10.25
2022-10-22T16:20:27.701Z,10.93
2022-10-22T16:22:55.126Z,11.55
2022-10-22T16:25:22.388Z,11.68
2022-10-22T16:27:51.130Z,11.68
2022-10-22T16:30:22.605Z,11.88
2022-10-22T16:32:54.531Z,11.18
2022-10-22T16:35:22.753Z,12.02
2022-10-22T16:37:58.018Z,13.50
2022-10-22T16:40:26.077Z,13.73
2022-10-22T16:42:53.481Z,12.48
2022-10-22T16:45:20.694Z,13.25
2022-10-22T16:47:49.355Z,12.95
2022-10-22T16:50:20.241Z,13.38
2022-10-22T16:52:47.991Z,14.60
2022-10-22T16:55:21.346Z,13.65
2022-10-22T16:57:52.915Z,13.95
2022-10-22T17:00:21.368Z,14.38
2022-10-22T17:02:54.060Z,16.00
2022-10-22T17:05:23.011Z,15.00
2022-10-22T17:07:51.170Z,13.13
2022-10-22T17:12:53.996Z,16.80
2022-10-22T17:15:23.872Z,17.10
2022-10-22T17:17:54.077Z,17.23
2022-10-22T17:20:22.233Z,16.73
2022-10-22T17:22:50.099Z,12.40
2022-10-22T17:25:24.095Z,10.70
2022-10-22T17:27:54.387Z,11.68
2022-10-22T17:30:29.114Z,11.82
2022-10-22T17:32:56.750Z,11.90
2022-10-22T17:37:59.506Z,11.77
2022-10-22T17:40:27.693Z,14.20
2022-10-22T17:42:56.580Z,12.50
2022-10-22T17:45:28.947Z,13.10
2022-10-22T17:48:01.187Z,12.27
2022-10-22T17:50:31.059Z,12.52
2022-10-22T17:53:04.268Z,13.20
2022-10-22T17:55:38.581Z,13.60
2022-10-22T17:58:14.407Z,13.40
2022-10-22T18:00:52.882Z,12.25
2022-10-22T18:03:30.074Z,13.40
2022-10-22T18:06:07.984Z,13.23
2022-10-22T18:08:35.209Z,13.25
2022-10-22T18:11:16.441Z,12.30
2022-10-22T18:13:43.639Z,12.45
2022-10-22T18:16:10.848Z,12.40
2022-10-22T18:18:38.096Z,11.60
2022-10-22T18:21:05.471Z,13.00
2022-10-22T18:23:33.658Z,13.68
2022-10-22T18:26:00.695Z,12.20
2022-10-22T18:28:27.941Z,14.23
2022-10-22T18:30:56.327Z,13.40
2022-10-22T18:33:24.493Z,13.50
2022-10-22T18:35:52.726Z,14.73
2022-10-22T18:38:23.117Z,14.52
2022-10-22T18:40:50.826Z,14.45
2022-10-22T18:43:18.800Z,14.07
2022-10-22T18:45:47.437Z,13.68
2022-10-22T18:48:17.665Z,16.33
2022-10-22T18:50:46.022Z,13.90
2022-10-22T18:53:15.861Z,13.88
2022-10-22T18:55:43.576Z,13.20
2022-10-22T18:58:11.106Z,13.98
2022-10-22T19:00:38.773Z,12.48
2022-10-22T19:03:06.202Z,14.25
2022-10-22T19:05:33.767Z,14.55
2022-10-22T19:08:01.369Z,14.85
2022-10-22T19:10:28.701Z,16.30
2022-10-22T19:12:55.803Z,14.98
2022-10-22T19:15:23.303Z,15.07
2022-10-22T19:17:50.746Z,14.70
2022-10-22T19:20:24.594Z,15.02
2022-10-22T19:22:53.630Z,14.20
2022-10-22T19:25:21.065Z,14.77
2022-10-22T19:27:49.242Z,14.95
2022-10-22T19:30:17.815Z,13.38
2022-10-22T19:32:45.627Z,14.95
2022-10-22T19:35:16.680Z,16.35
2022-10-22T19:37:48.267Z,15.38
2022-10-22T19:40:16.282Z,16.35
2022-10-22T19:42:47.306Z,15.15
2022-10-22T19:45:15.578Z,15.23
2022-10-22T19:47:42.985Z,15.27
2022-10-22T19:50:10.131Z,15.07
2022-10-22T19:52:37.463Z,16.17
2022-10-22T19:55:04.982Z,16.23
2022-10-22T19:57:32.227Z,15.15
2022-10-22T19:59:59.575Z,16.02
2022-10-22T20:02:26.862Z,16.75
2022-10-22T20:04:54.160Z,18.20
2022-10-22T20:07:21.505Z,15.85
2022-10-22T20:09:48.903Z,15.73
2022-10-22T20:12:23.617Z,16.42
2022-10-22T20:14:52.026Z,15.93
2022-10-22T20:17:20.808Z,16.73
2022-10-22T20:19:48.897Z,14.57
2022-10-22T20:22:19.739Z,15.38
2022-10-22T20:24:47.956Z,14.90
2022-10-22T20:27:16.554Z,15.85
2022-10-22T20:29:44.781Z,15.38
2022-10-22T20:32:13.140Z,15.63
2022-10-22T20:34:42.029Z,15.43
2022-10-22T20:37:13.026Z,15.80
2022-10-22T20:39:40.779Z,15.27
2022-10-22T20:42:08.745Z,14.05
2022-10-22T20:44:36.541Z,13.48
2022-10-22T20:47:06.536Z,14.63
2022-10-22T20:49:34.398Z,14.18
2022-10-22T20:52:02.411Z,13.63
2022-10-22T20:54:30.452Z,14.63
2022-10-22T20:56:59.171Z,13.75
2022-10-22T20:59:32.975Z,13.65
2022-10-22T21:02:03.909Z,13.70
2022-10-22T21:04:46.589Z,13.90
2022-10-22T21:07:14.204Z,14.10
2022-10-22T21:09:41.348Z,13.82
2022-10-22T21:12:08.747Z,12.27
2022-10-22T21:14:35.855Z,13.55
2022-10-22T21:17:03.114Z,13.35
2022-10-22T21:19:31.493Z,12.93
2022-10-22T21:21:59.018Z,13.45
2022-10-22T21:24:26.966Z,14.40
2022-10-22T21:26:54.638Z,12.85
2022-10-22T21:29:22.557Z,12.43
2022-10-22T21:31:52.728Z,13.40
2022-10-22T21:34:20.272Z,13.20
2022-10-22T21:37:10.548Z,12.75
2022-10-22T21:39:45.276Z,13.13
2022-10-22T21:42:15.596Z,12.00
2022-10-22T21:44:42.669Z,12.82
2022-10-22T21:47:09.823Z,12.68
2022-10-22T21:49:36.858Z,14.05
2022-10-22T21:52:07.047Z,13.38
2022-10-22T21:54:37.629Z,14.25
2022-10-22T21:57:05.223Z,13.57
2022-10-22T21:59:32.556Z,13.23
2022-10-22T22:02:04.780Z,13.00
2022-10-22T22:04:33.250Z,12.27
2022-10-22T22:07:00.520Z,12.02
2022-10-22T22:09:27.596Z,12.65
2022-10-22T22:11:54.762Z,12.35
2022-10-22T22:14:21.983Z,11.95
2022-10-22T22:16:49.082Z,12.02
2022-10-22T22:19:16.251Z,11.48
2022-10-22T22:21:43.373Z,11.85
2022-10-22T22:24:12.997Z,13.05
2022-10-22T22:26:40.493Z,12.23
2022-10-22T22:29:07.552Z,12.07
2022-10-22T22:31:35.534Z,12.38
2022-10-22T22:34:05.501Z,11.30
2022-10-22T22:36:37.629Z,11.38
2022-10-22T22:39:06.963Z,11.05
2022-10-22T22:41:34.550Z,11.25
2022-10-22T22:44:02.252Z,10.80
2022-10-22T22:46:29.573Z,11.35
2022-10-22T22:48:56.730Z,10.52
2022-10-22T22:51:24.310Z,11.40
2022-10-22T22:53:51.930Z,11.02
2022-10-22T22:56:22.449Z,10.40
2022-10-22T22:58:49.981Z,9.88
2022-10-22T23:01:30.113Z,10.00
2022-10-22T23:04:02.553Z,10.10
2022-10-22T23:06:33.190Z,10.02
2022-10-22T23:09:00.670Z,10.23
2022-10-22T23:11:28.581Z,9.40
2022-10-22T23:13:58.123Z,9.88
2022-10-22T23:16:27.652Z,9.82
2022-10-22T23:18:56.053Z,9.75
2022-10-22T23:21:27.109Z,10.00
2022-10-22T23:23:57.644Z,10.43
2022-10-22T23:26:30.569Z,9.30
2022-10-22T23:29:28.164Z,9.48
2022-10-22T23:31:55.982Z,10.50
2022-10-22T23:34:25.447Z,9.85
2022-10-22T23:36:53.378Z,9.73
2022-10-22T23:39:23.276Z,9.98
2022-10-22T23:41:50.975Z,11.13
2022-10-22T23:44:18.059Z,9.88
2022-10-22T23:46:45.251Z,9.95
2022-10-22T23:49:12.497Z,11.18
2022-10-22T23:51:40.820Z,10.93
2022-10-22T23:54:11.333Z,10.68
2022-10-22T23:56:38.999Z,10.30
2022-10-22T23:59:07.112Z,10.45
